Terminal Aerodrome Forecast
Issued by NWS

Current Version | Previous Version | Graphics & Text | Print | Product List | Glossary On
Versions: 1 2 3 4 5 6 7 8 9 10 11 12 13 14 15 16 17 18 19
000
FTUS41 KPBZ 201700 RRA
TAFHLG
TAF
KHLG 201747Z 2018/2118 VRB03KT P6SM SCT020 BKN050
      TEMPO 2018/2022 BKN020
     FM210800 14003KT 3SM BR SCT040
     FM211000 VRB02KT 2SM BR BKN002
      TEMPO 2110/2112 1/2SM FG VV001
     FM211300 18005KT P6SM SCT040=

USA.gov is the U.S. government's official web portal to all federal, state and local government web resources and services.